sensor_id;sensor_type;location;lat;lon;timestamp;temperature;humidity
3986;DHT22;2007;48.750;9.278;2023-07-16T00:00:46;28.00;52.90
3986;DHT22;2007;48.750;9.278;2023-07-16T00:03:14;28.00;52.90
3986;DHT22;2007;48.750;9.278;2023-07-16T00:05:42;28.00;52.90
3986;DHT22;2007;48.750;9.278;2023-07-16T00:08:10;28.00;52.90
3986;DHT22;2007;48.750;9.278;2023-07-16T00:10:38;28.00;53.00
3986;DHT22;2007;48.750;9.278;2023-07-16T00:13:06;28.00;53.00
3986;DHT22;2007;48.750;9.278;2023-07-16T00:15:34;28.00;52.90
3986;DHT22;2007;48.750;9.278;2023-07-16T00:18:03;28.00;52.90
3986;DHT22;2007;48.750;9.278;2023-07-16T00:20:32;28.00;52.90
3986;DHT22;2007;48.750;9.278;2023-07-16T00:23:00;28.00;53.00
3986;DHT22;2007;48.750;9.278;2023-07-16T00:25:28;28.00;53.00
3986;DHT22;2007;48.750;9.278;2023-07-16T00:27:56;28.00;52.90
3986;DHT22;2007;48.750;9.278;2023-07-16T00:30:24;28.00;52.90
3986;DHT22;2007;48.750;9.278;2023-07-16T00:32:52;28.00;52.90
3986;DHT22;2007;48.750;9.278;2023-07-16T00:35:20;28.00;52.90
3986;DHT22;2007;48.750;9.278;2023-07-16T00:37:48;28.00;52.90
3986;DHT22;2007;48.750;9.278;2023-07-16T00:40:16;28.00;52.90
3986;DHT22;2007;48.750;9.278;2023-07-16T00:42:44;28.00;52.90
3986;DHT22;2007;48.750;9.278;2023-07-16T00:45:13;28.00;52.90
3986;DHT22;2007;48.750;9.278;2023-07-16T00:47:42;28.00;52.90
3986;DHT22;2007;48.750;9.278;2023-07-16T00:50:11;28.00;53.00
3986;DHT22;2007;48.750;9.278;2023-07-16T00:52:40;28.00;52.90
3986;DHT22;2007;48.750;9.278;2023-07-16T00:55:09;28.00;53.00
3986;DHT22;2007;48.750;9.278;2023-07-16T00:57:38;28.00;52.90
3986;DHT22;2007;48.750;9.278;2023-07-16T01:00:07;28.00;52.90
3986;DHT22;2007;48.750;9.278;2023-07-16T01:02:36;28.00;52.90
3986;DHT22;2007;48.750;9.278;2023-07-16T01:05:04;28.00;52.90
3986;DHT22;2007;48.750;9.278;2023-07-16T01:07:33;28.00;52.90
3986;DHT22;2007;48.750;9.278;2023-07-16T01:10:04;28.00;52.90
3986;DHT22;2007;48.750;9.278;2023-07-16T01:12:32;28.00;52.90
3986;DHT22;2007;48.750;9.278;2023-07-16T01:15:01;28.00;53.00
3986;DHT22;2007;48.750;9.278;2023-07-16T01:17:29;28.00;53.00
3986;DHT22;2007;48.750;9.278;2023-07-16T01:19:57;28.00;52.90
3986;DHT22;2007;48.750;9.278;2023-07-16T01:22:41;28.00;53.00
3986;DHT22;2007;48.750;9.278;2023-07-16T01:25:36;28.00;52.90
3986;DHT22;2007;48.750;9.278;2023-07-16T01:28:33;28.00;53.20
3986;DHT22;2007;48.750;9.278;2023-07-16T01:31:06;28.00;52.90
3986;DHT22;2007;48.750;9.278;2023-07-16T01:33:34;28.00;53.00
3986;DHT22;2007;48.750;9.278;2023-07-16T01:36:03;28.00;53.00
3986;DHT22;2007;48.750;9.278;2023-07-16T01:38:31;28.00;53.00
3986;DHT22;2007;48.750;9.278;2023-07-16T01:40:59;28.00;52.90
3986;DHT22;2007;48.750;9.278;2023-07-16T01:43:27;28.00;52.90
3986;DHT22;2007;48.750;9.278;2023-07-16T01:45:55;28.00;53.00
3986;DHT22;2007;48.750;9.278;2023-07-16T01:48:33;28.00;53.00
3986;DHT22;2007;48.750;9.278;2023-07-16T01:51:01;28.00;53.00
3986;DHT22;2007;48.750;9.278;2023-07-16T01:53:29;28.00;52.90
3986;DHT22;2007;48.750;9.278;2023-07-16T01:56:00;28.00;53.00
3986;DHT22;2007;48.750;9.278;2023-07-16T01:58:28;28.00;53.00
3986;DHT22;2007;48.750;9.278;2023-07-16T02:00:56;28.00;53.00
3986;DHT22;2007;48.750;9.278;2023-07-16T02:03:26;27.90;53.00
3986;DHT22;2007;48.750;9.278;2023-07-16T02:05:54;27.90;53.00
3986;DHT22;2007;48.750;9.278;2023-07-16T02:08:22;28.00;53.00
3986;DHT22;2007;48.750;9.278;2023-07-16T02:10:50;28.00;53.00
3986;DHT22;2007;48.750;9.278;2023-07-16T02:13:18;28.00;53.10
3986;DHT22;2007;48.750;9.278;2023-07-16T02:15:45;28.00;53.00
3986;DHT22;2007;48.750;9.278;2023-07-16T02:18:14;28.00;53.00
3986;DHT22;2007;48.750;9.278;2023-07-16T02:20:44;27.90;52.90
3986;DHT22;2007;48.750;9.278;2023-07-16T02:23:12;28.00;53.00
3986;DHT22;2007;48.750;9.278;2023-07-16T02:25:40;27.90;52.90
3986;DHT22;2007;48.750;9.278;2023-07-16T02:28:08;28.00;53.00
3986;DHT22;2007;48.750;9.278;2023-07-16T02:30:36;27.90;52.90
3986;DHT22;2007;48.750;9.278;2023-07-16T02:33:05;27.90;52.90
3986;DHT22;2007;48.750;9.278;2023-07-16T02:35:32;28.00;53.00
3986;DHT22;2007;48.750;9.278;2023-07-16T02:38:02;27.90;52.90
3986;DHT22;2007;48.750;9.278;2023-07-16T02:40:29;28.00;53.00
3986;DHT22;2007;48.750;9.278;2023-07-16T02:42:57;28.00;53.00
3986;DHT22;2007;48.750;9.278;2023-07-16T02:45:25;28.00;53.00
3986;DHT22;2007;48.750;9.278;2023-07-16T02:47:53;27.90;52.90
3986;DHT22;2007;48.750;9.278;2023-07-16T02:50:21;27.90;52.90
3986;DHT22;2007;48.750;9.278;2023-07-16T02:52:49;27.90;52.90
3986;DHT22;2007;48.750;9.278;2023-07-16T02:55:19;27.90;52.90
3986;DHT22;2007;48.750;9.278;2023-07-16T02:57:47;27.90;52.90
3986;DHT22;2007;48.750;9.278;2023-07-16T03:00:16;27.90;52.90
3986;DHT22;2007;48.750;9.278;2023-07-16T03:02:43;27.90;52.90
3986;DHT22;2007;48.750;9.278;2023-07-16T03:05:11;27.90;52.90
3986;DHT22;2007;48.750;9.278;2023-07-16T03:07:39;27.90;52.90
3986;DHT22;2007;48.750;9.278;2023-07-16T03:10:08;27.90;52.90
3986;DHT22;2007;48.750;9.278;2023-07-16T03:12:37;27.90;52.80
3986;DHT22;2007;48.750;9.278;2023-07-16T03:15:06;27.90;52.80
3986;DHT22;2007;48.750;9.278;2023-07-16T03:17:35;27.90;52.80
3986;DHT22;2007;48.750;9.278;2023-07-16T03:20:03;27.90;52.80
3986;DHT22;2007;48.750;9.278;2023-07-16T03:22:32;27.90;53.40
3986;DHT22;2007;48.750;9.278;2023-07-16T03:25:00;27.90;52.70
3986;DHT22;2007;48.750;9.278;2023-07-16T03:27:29;27.90;52.70
3986;DHT22;2007;48.750;9.278;2023-07-16T03:29:58;27.90;52.70
3986;DHT22;2007;48.750;9.278;2023-07-16T03:32:26;27.90;52.70
3986;DHT22;2007;48.750;9.278;2023-07-16T03:35:12;27.90;52.70
3986;DHT22;2007;48.750;9.278;2023-07-16T03:37:39;27.90;52.70
3986;DHT22;2007;48.750;9.278;2023-07-16T03:40:15;27.90;52.70
3986;DHT22;2007;48.750;9.278;2023-07-16T03:42:43;27.90;52.80
3986;DHT22;2007;48.750;9.278;2023-07-16T03:45:13;27.90;52.80
3986;DHT22;2007;48.750;9.278;2023-07-16T03:47:41;27.90;52.80
3986;DHT22;2007;48.750;9.278;2023-07-16T03:50:10;27.90;52.80
3986;DHT22;2007;48.750;9.278;2023-07-16T03:52:38;27.90;52.80
3986;DHT22;2007;48.750;9.278;2023-07-16T03:55:06;27.90;52.80
3986;DHT22;2007;48.750;9.278;2023-07-16T03:57:34;27.90;52.80
3986;DHT22;2007;48.750;9.278;2023-07-16T04:00:03;27.90;52.80
3986;DHT22;2007;48.750;9.278;2023-07-16T04:02:34;27.90;52.80
3986;DHT22;2007;48.750;9.278;2023-07-16T04:05:02;27.80;52.80
3986;DHT22;2007;48.750;9.278;2023-07-16T04:07:30;27.90;52.80
3986;DHT22;2007;48.750;9.278;2023-07-16T04:09:58;27.90;52.90
3986;DHT22;2007;48.750;9.278;2023-07-16T04:12:26;27.90;52.80
3986;DHT22;2007;48.750;9.278;2023-07-16T04:14:58;27.80;52.80
3986;DHT22;2007;48.750;9.278;2023-07-16T04:17:26;27.90;52.80
3986;DHT22;2007;48.750;9.278;2023-07-16T04:19:55;27.80;52.80
3986;DHT22;2007;48.750;9.278;2023-07-16T04:22:23;27.90;52.80
3986;DHT22;2007;48.750;9.278;2023-07-16T04:24:51;27.90;52.80
3986;DHT22;2007;48.750;9.278;2023-07-16T04:27:19;27.80;52.80
3986;DHT22;2007;48.750;9.278;2023-07-16T04:29:47;27.90;52.80
3986;DHT22;2007;48.750;9.278;2023-07-16T04:32:15;27.80;52.80
3986;DHT22;2007;48.750;9.278;2023-07-16T04:34:43;27.80;52.80
3986;DHT22;2007;48.750;9.278;2023-07-16T04:37:12;27.80;52.80
3986;DHT22;2007;48.750;9.278;2023-07-16T04:39:40;27.80;52.80
3986;DHT22;2007;48.750;9.278;2023-07-16T04:42:08;27.80;52.80
3986;DHT22;2007;48.750;9.278;2023-07-16T04:44:35;27.80;52.80
3986;DHT22;2007;48.750;9.278;2023-07-16T04:47:04;27.80;52.80
3986;DHT22;2007;48.750;9.278;2023-07-16T04:49:34;27.80;52.80
3986;DHT22;2007;48.750;9.278;2023-07-16T04:52:02;27.80;52.80
3986;DHT22;2007;48.750;9.278;2023-07-16T04:54:36;27.80;52.80
3986;DHT22;2007;48.750;9.278;2023-07-16T04:57:06;27.80;52.80
3986;DHT22;2007;48.750;9.278;2023-07-16T04:59:34;27.80;52.80
3986;DHT22;2007;48.750;9.278;2023-07-16T05:02:04;27.80;52.80
3986;DHT22;2007;48.750;9.278;2023-07-16T05:04:32;27.80;52.80
3986;DHT22;2007;48.750;9.278;2023-07-16T05:07:01;27.80;52.80
3986;DHT22;2007;48.750;9.278;2023-07-16T05:09:29;27.80;52.80
3986;DHT22;2007;48.750;9.278;2023-07-16T05:11:59;27.80;52.70
3986;DHT22;2007;48.750;9.278;2023-07-16T05:14:28;27.80;52.80
3986;DHT22;2007;48.750;9.278;2023-07-16T05:16:56;27.80;52.80
3986;DHT22;2007;48.750;9.278;2023-07-16T05:19:24;27.80;52.80
3986;DHT22;2007;48.750;9.278;2023-07-16T05:21:52;27.80;52.80
3986;DHT22;2007;48.750;9.278;2023-07-16T05:24:20;27.80;52.80
3986;DHT22;2007;48.750;9.278;2023-07-16T05:26:48;27.80;52.80
3986;DHT22;2007;48.750;9.278;2023-07-16T05:29:18;27.80;52.80
3986;DHT22;2007;48.750;9.278;2023-07-16T05:31:46;27.80;52.80
3986;DHT22;2007;48.750;9.278;2023-07-16T05:34:14;27.70;52.70
3986;DHT22;2007;48.750;9.278;2023-07-16T05:36:43;27.80;52.80
3986;DHT22;2007;48.750;9.278;2023-07-16T05:39:11;27.80;52.80
3986;DHT22;2007;48.750;9.278;2023-07-16T05:41:40;27.70;52.70
3986;DHT22;2007;48.750;9.278;2023-07-16T05:44:08;27.80;53.50
3986;DHT22;2007;48.750;9.278;2023-07-16T05:46:37;27.70;52.70
3986;DHT22;2007;48.750;9.278;2023-07-16T05:49:05;27.70;52.70
3986;DHT22;2007;48.750;9.278;2023-07-16T05:51:33;27.70;52.70
3986;DHT22;2007;48.750;9.278;2023-07-16T05:54:01;27.80;52.80
3986;DHT22;2007;48.750;9.278;2023-07-16T05:56:29;27.80;52.80
3986;DHT22;2007;48.750;9.278;2023-07-16T05:58:57;27.80;52.80
3986;DHT22;2007;48.750;9.278;2023-07-16T06:01:25;27.80;52.80
3986;DHT22;2007;48.750;9.278;2023-07-16T06:03:54;27.80;52.80
3986;DHT22;2007;48.750;9.278;2023-07-16T06:06:22;27.80;52.80
3986;DHT22;2007;48.750;9.278;2023-07-16T06:08:50;27.70;52.70
3986;DHT22;2007;48.750;9.278;2023-07-16T06:11:18;27.70;52.70
3986;DHT22;2007;48.750;9.278;2023-07-16T06:13:46;27.70;52.60
3986;DHT22;2007;48.750;9.278;2023-07-16T06:16:14;27.70;52.70
3986;DHT22;2007;48.750;9.278;2023-07-16T06:18:42;27.70;52.70
3986;DHT22;2007;48.750;9.278;2023-07-16T06:21:11;27.70;52.60
3986;DHT22;2007;48.750;9.278;2023-07-16T06:23:40;27.70;52.70
3986;DHT22;2007;48.750;9.278;2023-07-16T06:26:08;27.70;52.70
3986;DHT22;2007;48.750;9.278;2023-07-16T06:28:36;27.70;52.60
3986;DHT22;2007;48.750;9.278;2023-07-16T06:31:03;27.70;52.60
3986;DHT22;2007;48.750;9.278;2023-07-16T06:33:31;27.70;52.70
3986;DHT22;2007;48.750;9.278;2023-07-16T06:36:00;27.70;52.60
3986;DHT22;2007;48.750;9.278;2023-07-16T06:38:29;27.70;52.60
3986;DHT22;2007;48.750;9.278;2023-07-16T06:40:57;27.70;52.60
3986;DHT22;2007;48.750;9.278;2023-07-16T06:43:25;27.70;52.60
3986;DHT22;2007;48.750;9.278;2023-07-16T06:45:53;27.70;52.60
3986;DHT22;2007;48.750;9.278;2023-07-16T06:48:21;27.70;52.60
3986;DHT22;2007;48.750;9.278;2023-07-16T06:50:49;27.70;52.50
3986;DHT22;2007;48.750;9.278;2023-07-16T06:53:17;27.70;52.50
3986;DHT22;2007;48.750;9.278;2023-07-16T06:55:48;27.70;52.60
3986;DHT22;2007;48.750;9.278;2023-07-16T06:58:16;27.70;52.50
3986;DHT22;2007;48.750;9.278;2023-07-16T07:00:44;27.70;52.60
3986;DHT22;2007;48.750;9.278;2023-07-16T07:03:12;27.60;52.40
3986;DHT22;2007;48.750;9.278;2023-07-16T07:05:41;27.70;52.50
3986;DHT22;2007;48.750;9.278;2023-07-16T07:08:09;27.70;52.50
3986;DHT22;2007;48.750;9.278;2023-07-16T07:10:37;27.70;52.50
3986;DHT22;2007;48.750;9.278;2023-07-16T07:13:07;27.70;52.40
3986;DHT22;2007;48.750;9.278;2023-07-16T07:15:35;27.70;52.40
3986;DHT22;2007;48.750;9.278;2023-07-16T07:18:03;27.60;52.30
3986;DHT22;2007;48.750;9.278;2023-07-16T07:20:31;27.60;52.40
3986;DHT22;2007;48.750;9.278;2023-07-16T07:22:59;27.60;52.40
3986;DHT22;2007;48.750;9.278;2023-07-16T07:25:29;27.60;52.40
3986;DHT22;2007;48.750;9.278;2023-07-16T07:27:57;27.60;52.30
3986;DHT22;2007;48.750;9.278;2023-07-16T07:30:27;27.60;52.40
3986;DHT22;2007;48.750;9.278;2023-07-16T07:32:54;27.60;52.40
3986;DHT22;2007;48.750;9.278;2023-07-16T07:35:22;27.70;52.50
3986;DHT22;2007;48.750;9.278;2023-07-16T07:37:50;27.60;52.40
3986;DHT22;2007;48.750;9.278;2023-07-16T07:40:18;27.70;52.50
3986;DHT22;2007;48.750;9.278;2023-07-16T07:42:47;27.60;52.40
3986;DHT22;2007;48.750;9.278;2023-07-16T07:45:15;27.60;52.40
3986;DHT22;2007;48.750;9.278;2023-07-16T07:47:44;27.60;53.00
3986;DHT22;2007;48.750;9.278;2023-07-16T07:50:12;27.60;52.40
3986;DHT22;2007;48.750;9.278;2023-07-16T07:52:40;27.60;52.40
3986;DHT22;2007;48.750;9.278;2023-07-16T07:55:08;27.60;52.30
3986;DHT22;2007;48.750;9.278;2023-07-16T07:57:36;27.60;52.30
3986;DHT22;2007;48.750;9.278;2023-07-16T08:00:05;27.60;52.40
3986;DHT22;2007;48.750;9.278;2023-07-16T08:02:38;27.60;52.30
3986;DHT22;2007;48.750;9.278;2023-07-16T08:05:08;27.60;52.30
3986;DHT22;2007;48.750;9.278;2023-07-16T08:07:36;27.60;52.40
3986;DHT22;2007;48.750;9.278;2023-07-16T08:10:05;27.60;52.30
3986;DHT22;2007;48.750;9.278;2023-07-16T08:12:32;27.60;52.30
3986;DHT22;2007;48.750;9.278;2023-07-16T08:15:00;27.60;52.20
3986;DHT22;2007;48.750;9.278;2023-07-16T08:17:28;27.60;52.30
3986;DHT22;2007;48.750;9.278;2023-07-16T08:19:56;27.60;52.30
3986;DHT22;2007;48.750;9.278;2023-07-16T08:22:25;27.60;52.30
3986;DHT22;2007;48.750;9.278;2023-07-16T08:24:53;27.60;52.40
3986;DHT22;2007;48.750;9.278;2023-07-16T08:27:21;27.60;52.30
3986;DHT22;2007;48.750;9.278;2023-07-16T08:29:49;27.60;52.40
3986;DHT22;2007;48.750;9.278;2023-07-16T08:32:17;27.60;52.30
3986;DHT22;2007;48.750;9.278;2023-07-16T08:34:45;27.60;52.30
3986;DHT22;2007;48.750;9.278;2023-07-16T08:37:13;27.60;52.30
3986;DHT22;2007;48.750;9.278;2023-07-16T08:39:42;27.60;52.40
3986;DHT22;2007;48.750;9.278;2023-07-16T08:42:10;27.60;52.40
3986;DHT22;2007;48.750;9.278;2023-07-16T08:44:38;27.60;52.30
3986;DHT22;2007;48.750;9.278;2023-07-16T08:47:06;27.60;52.40
3986;DHT22;2007;48.750;9.278;2023-07-16T08:49:34;27.60;52.30
3986;DHT22;2007;48.750;9.278;2023-07-16T08:52:02;27.60;52.30
3986;DHT22;2007;48.750;9.278;2023-07-16T08:54:32;27.60;52.30
3986;DHT22;2007;48.750;9.278;2023-07-16T08:57:01;27.60;52.40
3986;DHT22;2007;48.750;9.278;2023-07-16T08:59:29;27.60;52.40
3986;DHT22;2007;48.750;9.278;2023-07-16T09:01:57;27.60;52.50
3986;DHT22;2007;48.750;9.278;2023-07-16T09:04:25;27.60;52.40
3986;DHT22;2007;48.750;9.278;2023-07-16T09:06:54;27.60;52.40
3986;DHT22;2007;48.750;9.278;2023-07-16T09:09:24;27.60;52.40
3986;DHT22;2007;48.750;9.278;2023-07-16T09:11:52;27.50;52.30
3986;DHT22;2007;48.750;9.278;2023-07-16T09:14:21;27.50;52.30
3986;DHT22;2007;48.750;9.278;2023-07-16T09:16:49;27.60;52.40
3986;DHT22;2007;48.750;9.278;2023-07-16T09:19:17;27.60;52.40
3986;DHT22;2007;48.750;9.278;2023-07-16T09:21:47;27.60;52.40
3986;DHT22;2007;48.750;9.278;2023-07-16T09:24:15;27.50;52.30
3986;DHT22;2007;48.750;9.278;2023-07-16T09:26:49;27.50;52.30
3986;DHT22;2007;48.750;9.278;2023-07-16T09:29:18;27.50;52.30
3986;DHT22;2007;48.750;9.278;2023-07-16T09:31:54;27.50;52.30
3986;DHT22;2007;48.750;9.278;2023-07-16T09:34:23;27.50;52.30
3986;DHT22;2007;48.750;9.278;2023-07-16T09:36:51;27.60;52.40
3986;DHT22;2007;48.750;9.278;2023-07-16T09:39:19;27.60;52.40
3986;DHT22;2007;48.750;9.278;2023-07-16T09:41:48;27.50;52.40
3986;DHT22;2007;48.750;9.278;2023-07-16T09:44:16;27.50;52.40
3986;DHT22;2007;48.750;9.278;2023-07-16T09:46:45;27.60;52.50
3986;DHT22;2007;48.750;9.278;2023-07-16T09:49:15;27.60;52.40
3986;DHT22;2007;48.750;9.278;2023-07-16T09:51:44;27.50;52.40
3986;DHT22;2007;48.750;9.278;2023-07-16T09:54:13;27.50;52.40
3986;DHT22;2007;48.750;9.278;2023-07-16T09:56:45;27.50;52.40
3986;DHT22;2007;48.750;9.278;2023-07-16T09:59:16;27.50;52.40
3986;DHT22;2007;48.750;9.278;2023-07-16T10:01:45;27.50;52.40
3986;DHT22;2007;48.750;9.278;2023-07-16T10:04:16;27.50;52.40
3986;DHT22;2007;48.750;9.278;2023-07-16T10:06:51;27.50;52.40
3986;DHT22;2007;48.750;9.278;2023-07-16T10:09:35;27.50;52.50
3986;DHT22;2007;48.750;9.278;2023-07-16T10:12:14;27.50;52.40
3986;DHT22;2007;48.750;9.278;2023-07-16T10:14:44;27.50;52.50
3986;DHT22;2007;48.750;9.278;2023-07-16T10:17:16;27.50;52.50
3986;DHT22;2007;48.750;9.278;2023-07-16T10:19:55;27.50;52.50
3986;DHT22;2007;48.750;9.278;2023-07-16T10:22:34;27.50;52.50
3986;DHT22;2007;48.750;9.278;2023-07-16T10:25:03;27.50;52.50
3986;DHT22;2007;48.750;9.278;2023-07-16T10:27:32;27.50;52.50
3986;DHT22;2007;48.750;9.278;2023-07-16T10:30:02;27.50;52.50
3986;DHT22;2007;48.750;9.278;2023-07-16T10:32:31;27.50;52.50
3986;DHT22;2007;48.750;9.278;2023-07-16T10:35:01;27.50;52.50
3986;DHT22;2007;48.750;9.278;2023-07-16T10:37:29;27.50;52.50
3986;DHT22;2007;48.750;9.278;2023-07-16T10:39:58;27.50;52.50
3986;DHT22;2007;48.750;9.278;2023-07-16T10:42:27;27.50;52.50
3986;DHT22;2007;48.750;9.278;2023-07-16T10:44:58;27.50;52.50
3986;DHT22;2007;48.750;9.278;2023-07-16T10:47:30;27.50;52.50
3986;DHT22;2007;48.750;9.278;2023-07-16T10:49:58;27.50;52.50
3986;DHT22;2007;48.750;9.278;2023-07-16T10:52:28;27.50;52.50
3986;DHT22;2007;48.750;9.278;2023-07-16T10:54:56;27.50;52.50
3986;DHT22;2007;48.750;9.278;2023-07-16T10:57:25;27.50;52.50
3986;DHT22;2007;48.750;9.278;2023-07-16T10:59:57;27.50;52.50
3986;DHT22;2007;48.750;9.278;2023-07-16T11:02:25;27.50;52.60
3986;DHT22;2007;48.750;9.278;2023-07-16T11:04:54;27.50;52.50
3986;DHT22;2007;48.750;9.278;2023-07-16T11:07:24;27.50;52.50
3986;DHT22;2007;48.750;9.278;2023-07-16T11:09:54;27.50;52.60
3986;DHT22;2007;48.750;9.278;2023-07-16T11:12:23;27.50;52.50
3986;DHT22;2007;48.750;9.278;2023-07-16T11:14:52;27.50;52.50
3986;DHT22;2007;48.750;9.278;2023-07-16T11:17:21;27.50;52.50
3986;DHT22;2007;48.750;9.278;2023-07-16T11:19:52;27.50;52.50
3986;DHT22;2007;48.750;9.278;2023-07-16T11:22:25;27.50;52.60
3986;DHT22;2007;48.750;9.278;2023-07-16T11:24:54;27.50;52.50
3986;DHT22;2007;48.750;9.278;2023-07-16T11:27:24;27.40;52.50
3986;DHT22;2007;48.750;9.278;2023-07-16T11:29:53;27.40;52.50
3986;DHT22;2007;48.750;9.278;2023-07-16T11:32:29;27.50;52.50
3986;DHT22;2007;48.750;9.278;2023-07-16T11:34:59;27.50;52.60
3986;DHT22;2007;48.750;9.278;2023-07-16T11:37:29;27.50;52.60
3986;DHT22;2007;48.750;9.278;2023-07-16T11:40:01;27.40;52.50
3986;DHT22;2007;48.750;9.278;2023-07-16T11:42:30;27.50;52.60
3986;DHT22;2007;48.750;9.278;2023-07-16T11:44:58;27.50;52.60
3986;DHT22;2007;48.750;9.278;2023-07-16T11:47:27;27.40;52.60
3986;DHT22;2007;48.750;9.278;2023-07-16T11:49:55;27.50;52.60
3986;DHT22;2007;48.750;9.278;2023-07-16T11:52:25;27.50;52.60
3986;DHT22;2007;48.750;9.278;2023-07-16T11:54:53;27.40;52.50
3986;DHT22;2007;48.750;9.278;2023-07-16T11:57:23;27.40;52.50
3986;DHT22;2007;48.750;9.278;2023-07-16T11:59:51;27.50;52.50
3986;DHT22;2007;48.750;9.278;2023-07-16T12:02:19;27.40;52.50
3986;DHT22;2007;48.750;9.278;2023-07-16T12:04:47;27.40;52.50
3986;DHT22;2007;48.750;9.278;2023-07-16T12:07:19;27.40;52.50
3986;DHT22;2007;48.750;9.278;2023-07-16T12:09:58;27.40;52.50
3986;DHT22;2007;48.750;9.278;2023-07-16T12:12:28;27.40;52.50
3986;DHT22;2007;48.750;9.278;2023-07-16T12:14:56;27.40;52.50
3986;DHT22;2007;48.750;9.278;2023-07-16T12:17:24;27.40;52.40
3986;DHT22;2007;48.750;9.278;2023-07-16T12:19:52;27.40;52.50
3986;DHT22;2007;48.750;9.278;2023-07-16T12:22:21;27.40;52.50
3986;DHT22;2007;48.750;9.278;2023-07-16T12:24:49;27.40;53.20
3986;DHT22;2007;48.750;9.278;2023-07-16T12:27:18;27.40;52.50
3986;DHT22;2007;48.750;9.278;2023-07-16T12:29:48;27.40;52.40
3986;DHT22;2007;48.750;9.278;2023-07-16T12:32:18;27.40;52.50
3986;DHT22;2007;48.750;9.278;2023-07-16T12:34:48;27.40;52.40
3986;DHT22;2007;48.750;9.278;2023-07-16T12:37:16;27.40;52.40
3986;DHT22;2007;48.750;9.278;2023-07-16T12:39:44;27.40;52.40
3986;DHT22;2007;48.750;9.278;2023-07-16T12:42:12;27.40;52.40
3986;DHT22;2007;48.750;9.278;2023-07-16T12:44:42;27.40;52.40
3986;DHT22;2007;48.750;9.278;2023-07-16T12:47:11;27.40;52.40
3986;DHT22;2007;48.750;9.278;2023-07-16T12:49:39;27.40;52.40
3986;DHT22;2007;48.750;9.278;2023-07-16T12:52:07;27.40;52.40
3986;DHT22;2007;48.750;9.278;2023-07-16T12:54:36;27.40;52.50
3986;DHT22;2007;48.750;9.278;2023-07-16T12:57:04;27.40;52.50
3986;DHT22;2007;48.750;9.278;2023-07-16T12:59:32;27.40;52.50
3986;DHT22;2007;48.750;9.278;2023-07-16T13:02:00;27.40;52.50
3986;DHT22;2007;48.750;9.278;2023-07-16T13:04:30;27.40;52.40
3986;DHT22;2007;48.750;9.278;2023-07-16T13:06:58;27.40;52.40
3986;DHT22;2007;48.750;9.278;2023-07-16T13:09:26;27.40;52.40
3986;DHT22;2007;48.750;9.278;2023-07-16T13:11:54;27.40;52.40
3986;DHT22;2007;48.750;9.278;2023-07-16T13:14:22;27.40;52.40
3986;DHT22;2007;48.750;9.278;2023-07-16T13:16:50;27.40;53.10
3986;DHT22;2007;48.750;9.278;2023-07-16T13:19:17;27.40;53.10
3986;DHT22;2007;48.750;9.278;2023-07-16T13:21:47;27.40;52.40
3986;DHT22;2007;48.750;9.278;2023-07-16T13:24:15;27.40;52.40
3986;DHT22;2007;48.750;9.278;2023-07-16T13:26:43;27.40;52.40
3986;DHT22;2007;48.750;9.278;2023-07-16T13:29:14;27.40;52.40
3986;DHT22;2007;48.750;9.278;2023-07-16T13:31:42;27.40;52.40
3986;DHT22;2007;48.750;9.278;2023-07-16T13:34:10;27.40;52.40
3986;DHT22;2007;48.750;9.278;2023-07-16T13:36:38;27.40;52.50
3986;DHT22;2007;48.750;9.278;2023-07-16T13:39:07;27.40;52.40
3986;DHT22;2007;48.750;9.278;2023-07-16T13:41:36;27.40;52.40
3986;DHT22;2007;48.750;9.278;2023-07-16T13:44:04;27.40;52.40
3986;DHT22;2007;48.750;9.278;2023-07-16T13:46:32;27.40;52.40
3986;DHT22;2007;48.750;9.278;2023-07-16T13:49:00;27.40;52.40
3986;DHT22;2007;48.750;9.278;2023-07-16T13:51:28;27.40;52.40
3986;DHT22;2007;48.750;9.278;2023-07-16T13:53:55;27.40;52.40
3986;DHT22;2007;48.750;9.278;2023-07-16T13:56:25;27.40;52.40
3986;DHT22;2007;48.750;9.278;2023-07-16T13:58:52;27.40;52.40
3986;DHT22;2007;48.750;9.278;2023-07-16T14:01:22;27.50;52.50
3986;DHT22;2007;48.750;9.278;2023-07-16T14:03:50;27.50;52.40
3986;DHT22;2007;48.750;9.278;2023-07-16T14:06:21;27.40;52.40
3986;DHT22;2007;48.750;9.278;2023-07-16T14:08:49;27.40;52.40
3986;DHT22;2007;48.750;9.278;2023-07-16T14:11:17;27.40;52.40
3986;DHT22;2007;48.750;9.278;2023-07-16T14:13:48;27.40;52.40
3986;DHT22;2007;48.750;9.278;2023-07-16T14:16:18;27.40;52.40
3986;DHT22;2007;48.750;9.278;2023-07-16T14:18:50;27.40;52.40
3986;DHT22;2007;48.750;9.278;2023-07-16T14:21:18;27.50;52.50
3986;DHT22;2007;48.750;9.278;2023-07-16T14:23:46;27.40;52.40
3986;DHT22;2007;48.750;9.278;2023-07-16T14:26:14;27.50;52.40
3986;DHT22;2007;48.750;9.278;2023-07-16T14:28:42;27.50;52.40
3986;DHT22;2007;48.750;9.278;2023-07-16T14:31:12;27.50;52.40
3986;DHT22;2007;48.750;9.278;2023-07-16T14:33:40;27.50;52.40
3986;DHT22;2007;48.750;9.278;2023-07-16T14:36:08;27.40;52.40
3986;DHT22;2007;48.750;9.278;2023-07-16T14:38:36;27.50;52.40
3986;DHT22;2007;48.750;9.278;2023-07-16T14:41:03;27.50;52.40
3986;DHT22;2007;48.750;9.278;2023-07-16T14:43:33;27.40;52.40
3986;DHT22;2007;48.750;9.278;2023-07-16T14:46:01;27.50;52.40
3986;DHT22;2007;48.750;9.278;2023-07-16T14:48:31;27.50;52.40
3986;DHT22;2007;48.750;9.278;2023-07-16T14:50:59;27.40;52.40
3986;DHT22;2007;48.750;9.278;2023-07-16T14:53:27;27.50;52.50
3986;DHT22;2007;48.750;9.278;2023-07-16T14:55:55;27.40;52.40
3986;DHT22;2007;48.750;9.278;2023-07-16T14:58:23;27.40;52.40
3986;DHT22;2007;48.750;9.278;2023-07-16T15:00:52;27.40;52.40
3986;DHT22;2007;48.750;9.278;2023-07-16T15:03:20;27.50;52.60
3986;DHT22;2007;48.750;9.278;2023-07-16T15:05:49;27.40;52.50
3986;DHT22;2007;48.750;9.278;2023-07-16T15:08:22;27.50;52.60
3986;DHT22;2007;48.750;9.278;2023-07-16T15:10:50;27.50;52.50
3986;DHT22;2007;48.750;9.278;2023-07-16T15:13:21;27.40;52.50
3986;DHT22;2007;48.750;9.278;2023-07-16T15:15:49;27.40;52.40
3986;DHT22;2007;48.750;9.278;2023-07-16T15:18:17;27.40;52.50
3986;DHT22;2007;48.750;9.278;2023-07-16T15:20:45;27.50;52.60
3986;DHT22;2007;48.750;9.278;2023-07-16T15:23:18;27.40;52.50
3986;DHT22;2007;48.750;9.278;2023-07-16T15:25:45;27.50;52.60
3986;DHT22;2007;48.750;9.278;2023-07-16T15:28:13;27.40;52.50
3986;DHT22;2007;48.750;9.278;2023-07-16T15:30:41;27.50;52.50
3986;DHT22;2007;48.750;9.278;2023-07-16T15:33:09;27.50;52.50
3986;DHT22;2007;48.750;9.278;2023-07-16T15:35:37;27.50;52.50
3986;DHT22;2007;48.750;9.278;2023-07-16T15:38:05;27.40;52.50
3986;DHT22;2007;48.750;9.278;2023-07-16T15:40:35;27.40;52.50
3986;DHT22;2007;48.750;9.278;2023-07-16T15:43:03;27.40;52.50
3986;DHT22;2007;48.750;9.278;2023-07-16T15:45:31;27.40;52.60
3986;DHT22;2007;48.750;9.278;2023-07-16T15:47:58;27.50;52.50
3986;DHT22;2007;48.750;9.278;2023-07-16T15:50:28;27.50;52.50
3986;DHT22;2007;48.750;9.278;2023-07-16T15:52:56;27.40;52.50
3986;DHT22;2007;48.750;9.278;2023-07-16T15:55:24;27.40;52.40
3986;DHT22;2007;48.750;9.278;2023-07-16T15:57:54;27.50;52.50
3986;DHT22;2007;48.750;9.278;2023-07-16T16:00:22;27.40;52.50
3986;DHT22;2007;48.750;9.278;2023-07-16T16:02:50;27.50;52.50
3986;DHT22;2007;48.750;9.278;2023-07-16T16:05:20;27.40;52.50
3986;DHT22;2007;48.750;9.278;2023-07-16T16:08:13;27.40;52.50
3986;DHT22;2007;48.750;9.278;2023-07-16T16:10:42;27.40;52.50
3986;DHT22;2007;48.750;9.278;2023-07-16T16:13:12;27.40;52.50